RJTH(METAR)
05/26 17:00
RJTH 260800Z 24009KT 9999 FEW018 SCT025 BKNXXX 22/19 Q1008 RMK
A2979=
戻る
トップページへ戻る
IMOC Co,.Ltd.